SJV221 WAYY-WAJJ
Flight info
| Callsign | SJV221 |
|---|---|
| Flight time | 1h 11m |
| Altitude | 33000 |
| Route | OVGOD T17 ANLEP |
| Aircraft | A320/M-SDE3FGHIRWY/LB1 |
Departure
| Time | 2026-04-19 08:29 |
|---|---|
| Airport | Mozes Kilangin Airport (WAYY) |
Arrival
| Time | 2026-04-19 09:41 |
|---|---|
| Airport | Dortheys Hiyo Eluay International Airport (WAJJ) |
| Time | Latitude | Longitude | Altitude | Speed | Heading |
|---|---|---|---|---|---|
| 2026-04-19 07:51 | -4.52906 | 136.88160 | 0 ft | 0 kts | 212° |
| 2026-04-19 08:17 | -4.52904 | 136.88161 | 0 ft | 2 kts | 212° |
| 2026-04-19 08:17 | -4.52882 | 136.88174 | 110 ft | 4 kts | 204° |
| 2026-04-19 08:17 | -4.52856 | 136.88183 | 110 ft | 4 kts | 185° |
| 2026-04-19 08:17 | -4.52833 | 136.88179 | 110 ft | 3 kts | 127° |
| 2026-04-19 08:18 | -4.52828 | 136.88173 | 109 ft | 0 kts | 122° |
| 2026-04-19 08:21 | -4.52830 | 136.88176 | 109 ft | 3 kts | 122° |
| 2026-04-19 08:22 | -4.52848 | 136.88204 | 109 ft | 5 kts | 122° |
| 2026-04-19 08:22 | -4.52861 | 136.88225 | 110 ft | 3 kts | 122° |
| 2026-04-19 08:22 | -4.52868 | 136.88236 | 110 ft | 1 kts | 122° |
| 2026-04-19 08:22 | -4.52887 | 136.88266 | 110 ft | 7 kts | 122° |
| 2026-04-19 08:23 | -4.52908 | 136.88300 | 110 ft | 5 kts | 122° |
| 2026-04-19 08:23 | -4.52934 | 136.88341 | 110 ft | 9 kts | 122° |
| 2026-04-19 08:23 | -4.52925 | 136.88388 | 109 ft | 7 kts | 39° |
| 2026-04-19 08:23 | -4.52866 | 136.88427 | 110 ft | 12 kts | 32° |
| 2026-04-19 08:24 | -4.52815 | 136.88478 | 111 ft | 10 kts | 78° |
| 2026-04-19 08:24 | -4.52841 | 136.88534 | 110 ft | 9 kts | 123° |
| 2026-04-19 08:24 | -4.52871 | 136.88582 | 110 ft | 9 kts | 122° |
| 2026-04-19 08:24 | -4.52921 | 136.88663 | 109 ft | 14 kts | 122° |
| 2026-04-19 08:25 | -4.52971 | 136.88744 | 110 ft | 13 kts | 122° |
| 2026-04-19 08:25 | -4.53025 | 136.88830 | 109 ft | 19 kts | 122° |
| 2026-04-19 08:25 | -4.53106 | 136.88961 | 109 ft | 22 kts | 123° |
| 2026-04-19 08:25 | -4.53184 | 136.89084 | 109 ft | 20 kts | 122° |
| 2026-04-19 08:26 | -4.53256 | 136.89203 | 109 ft | 19 kts | 122° |
| 2026-04-19 08:26 | -4.53324 | 136.89312 | 110 ft | 17 kts | 121° |
| 2026-04-19 08:26 | -4.53385 | 136.89411 | 110 ft | 16 kts | 123° |
| 2026-04-19 08:26 | -4.53443 | 136.89505 | 110 ft | 15 kts | 121° |
| 2026-04-19 08:27 | -4.53486 | 136.89594 | 111 ft | 12 kts | 95° |
| 2026-04-19 08:27 | -4.53490 | 136.89643 | 111 ft | 5 kts | 109° |
| 2026-04-19 08:27 | -4.53516 | 136.89655 | 111 ft | 3 kts | 187° |
| 2026-04-19 08:27 | -4.53523 | 136.89630 | 111 ft | 4 kts | 290° |
| 2026-04-19 08:28 | -4.53514 | 136.89618 | 111 ft | 0 kts | 304° |
| 2026-04-19 08:28 | -4.53503 | 136.89601 | 110 ft | 18 kts | 304° |
| 2026-04-19 08:28 | -4.53306 | 136.89282 | 109 ft | 86 kts | 302° |
| 2026-04-19 08:28 | -4.52895 | 136.88620 | 110 ft | 135 kts | 302° |
| 2026-04-19 08:29 | -4.52336 | 136.87723 | 306 ft | 159 kts | 303° |
| 2026-04-19 08:29 | -4.51751 | 136.86787 | 927 ft | 159 kts | 303° |
| 2026-04-19 08:29 | -4.51171 | 136.85839 | 1566 ft | 159 kts | 302° |
| 2026-04-19 08:29 | -4.50576 | 136.84873 | 2038 ft | 172 kts | 303° |
| 2026-04-19 08:30 | -4.49907 | 136.83802 | 2350 ft | 190 kts | 303° |
| 2026-04-19 08:30 | -4.49165 | 136.82628 | 2603 ft | 211 kts | 303° |
| 2026-04-19 08:30 | -4.48333 | 136.81305 | 2977 ft | 230 kts | 302° |
| 2026-04-19 08:30 | -4.47479 | 136.79920 | 3750 ft | 236 kts | 301° |
| 2026-04-19 08:31 | -4.46623 | 136.78512 | 4603 ft | 238 kts | 301° |
| 2026-04-19 08:31 | -4.45759 | 136.77107 | 5423 ft | 240 kts | 302° |
| 2026-04-19 08:31 | -4.44907 | 136.75652 | 6195 ft | 245 kts | 291° |
| 2026-04-19 08:31 | -4.44640 | 136.73959 | 6946 ft | 250 kts | 264° |
| 2026-04-19 08:32 | -4.45094 | 136.72281 | 7752 ft | 252 kts | 243° |
| 2026-04-19 08:32 | -4.46120 | 136.70869 | 8568 ft | 254 kts | 223° |
| 2026-04-19 08:32 | -4.47610 | 136.69908 | 9309 ft | 259 kts | 200° |
| 2026-04-19 08:32 | -4.49397 | 136.69614 | 9900 ft | 271 kts | 178° |
| 2026-04-19 08:33 | -4.51281 | 136.70134 | 10167 ft | 294 kts | 150° |
| 2026-04-19 08:33 | -4.53073 | 136.71278 | 10440 ft | 316 kts | 147° |
| 2026-04-19 08:33 | -4.54982 | 136.72509 | 10679 ft | 337 kts | 148° |
| 2026-04-19 08:33 | -4.57023 | 136.73781 | 11026 ft | 351 kts | 148° |
| 2026-04-19 08:34 | -4.59129 | 136.75065 | 11650 ft | 356 kts | 148° |
| 2026-04-19 08:34 | -4.61263 | 136.76355 | 12287 ft | 360 kts | 148° |
| 2026-04-19 08:34 | -4.63413 | 136.77654 | 12937 ft | 363 kts | 148° |
| 2026-04-19 08:34 | -4.65584 | 136.78976 | 13586 ft | 366 kts | 147° |
| 2026-04-19 08:35 | -4.67576 | 136.80572 | 14197 ft | 369 kts | 135° |
| 2026-04-19 08:35 | -4.69175 | 136.82597 | 14796 ft | 373 kts | 122° |
| 2026-04-19 08:35 | -4.70274 | 136.84925 | 15347 ft | 378 kts | 109° |
| 2026-04-19 08:35 | -4.70900 | 136.87505 | 15859 ft | 383 kts | 102° |
| 2026-04-19 08:36 | -4.71437 | 136.90139 | 16370 ft | 388 kts | 102° |
| 2026-04-19 08:36 | -4.71986 | 136.92796 | 16865 ft | 392 kts | 102° |
| 2026-04-19 08:36 | -4.72546 | 136.95490 | 17364 ft | 397 kts | 102° |
| 2026-04-19 08:36 | -4.73115 | 136.98214 | 17866 ft | 401 kts | 102° |
| 2026-04-19 08:37 | -4.73692 | 137.00972 | 18351 ft | 406 kts | 102° |
| 2026-04-19 08:37 | -4.74270 | 137.03750 | 18860 ft | 409 kts | 101° |
| 2026-04-19 08:37 | -4.74851 | 137.06552 | 19401 ft | 412 kts | 101° |
| 2026-04-19 08:37 | -4.75435 | 137.09367 | 19942 ft | 414 kts | 101° |
| 2026-04-19 08:38 | -4.76022 | 137.12204 | 20471 ft | 416 kts | 101° |
| 2026-04-19 08:38 | -4.76612 | 137.15056 | 20946 ft | 419 kts | 101° |
| 2026-04-19 08:38 | -4.77205 | 137.17925 | 21407 ft | 422 kts | 101° |
| 2026-04-19 08:38 | -4.77804 | 137.20819 | 21839 ft | 425 kts | 102° |
| 2026-04-19 08:39 | -4.78406 | 137.23731 | 22297 ft | 427 kts | 102° |
| 2026-04-19 08:39 | -4.78791 | 137.26651 | 22708 ft | 430 kts | 91° |
| 2026-04-19 08:39 | -4.78600 | 137.29650 | 23118 ft | 432 kts | 80° |
| 2026-04-19 08:39 | -4.77813 | 137.32557 | 23525 ft | 434 kts | 68° |
| 2026-04-19 08:40 | -4.76451 | 137.35261 | 23928 ft | 436 kts | 57° |
| 2026-04-19 08:40 | -4.74578 | 137.37659 | 24310 ft | 438 kts | 48° |
| 2026-04-19 08:40 | -4.72536 | 137.39939 | 24695 ft | 441 kts | 48° |
| 2026-04-19 08:40 | -4.70477 | 137.42234 | 25044 ft | 444 kts | 48° |
| 2026-04-19 08:41 | -4.68405 | 137.44543 | 25357 ft | 447 kts | 48° |
| 2026-04-19 08:41 | -4.66319 | 137.46873 | 25690 ft | 450 kts | 48° |
| 2026-04-19 08:41 | -4.64222 | 137.49220 | 26018 ft | 453 kts | 49° |
| 2026-04-19 08:41 | -4.62111 | 137.51583 | 26347 ft | 456 kts | 49° |
| 2026-04-19 08:42 | -4.59985 | 137.53962 | 26582 ft | 460 kts | 49° |
| 2026-04-19 08:42 | -4.57843 | 137.56354 | 26846 ft | 464 kts | 49° |
| 2026-04-19 08:42 | -4.55682 | 137.58772 | 27156 ft | 466 kts | 49° |
| 2026-04-19 08:42 | -4.53513 | 137.61200 | 27446 ft | 468 kts | 49° |
| 2026-04-19 08:43 | -4.51339 | 137.63630 | 27756 ft | 470 kts | 49° |
| 2026-04-19 08:43 | -4.49152 | 137.66072 | 28097 ft | 470 kts | 49° |
| 2026-04-19 08:43 | -4.46965 | 137.68516 | 28445 ft | 471 kts | 50° |
| 2026-04-19 08:43 | -4.44803 | 137.70929 | 28798 ft | 471 kts | 50° |
| 2026-04-19 08:44 | -4.42614 | 137.73373 | 29258 ft | 469 kts | 49° |
| 2026-04-19 08:44 | -4.40285 | 137.75646 | 29685 ft | 468 kts | 41° |
| 2026-04-19 08:44 | -4.37612 | 137.77521 | 29945 ft | 470 kts | 31° |
| 2026-04-19 08:44 | -4.34705 | 137.79010 | 30356 ft | 467 kts | 28° |
| 2026-04-19 08:45 | -4.31804 | 137.80456 | 30862 ft | 463 kts | 28° |
| 2026-04-19 08:45 | -4.28932 | 137.81896 | 31255 ft | 462 kts | 28° |
| 2026-04-19 08:45 | -4.26062 | 137.83345 | 31491 ft | 463 kts | 28° |
| 2026-04-19 08:45 | -4.23178 | 137.84804 | 31724 ft | 464 kts | 28° |
| 2026-04-19 08:46 | -4.20331 | 137.86247 | 31906 ft | 465 kts | 28° |
| 2026-04-19 08:46 | -4.17442 | 137.87710 | 32086 ft | 466 kts | 28° |
| 2026-04-19 08:46 | -4.14550 | 137.89171 | 32252 ft | 466 kts | 28° |
| 2026-04-19 08:46 | -4.11649 | 137.90633 | 32378 ft | 466 kts | 28° |
| 2026-04-19 08:47 | -4.08749 | 137.92092 | 32503 ft | 466 kts | 28° |
| 2026-04-19 08:47 | -4.05854 | 137.93550 | 32630 ft | 466 kts | 28° |
| 2026-04-19 08:47 | -4.02965 | 137.95008 | 32786 ft | 465 kts | 28° |
| 2026-04-19 08:47 | -4.00087 | 137.96507 | 32839 ft | 467 kts | 33° |
| 2026-04-19 08:48 | -3.95174 | 138.00726 | 32838 ft | 468 kts | 53° |
| 2026-04-19 08:48 | -3.91855 | 138.06318 | 32836 ft | 469 kts | 65° |
| 2026-04-19 08:49 | -3.88925 | 138.12196 | 32842 ft | 473 kts | 64° |
| 2026-04-19 08:49 | -3.85977 | 138.18095 | 32834 ft | 473 kts | 64° |
| 2026-04-19 08:50 | -3.83023 | 138.23980 | 32826 ft | 474 kts | 64° |
| 2026-04-19 08:50 | -3.80064 | 138.29880 | 32822 ft | 474 kts | 64° |
| 2026-04-19 08:51 | -3.77110 | 138.35800 | 32834 ft | 475 kts | 65° |
| 2026-04-19 08:51 | -3.74182 | 138.41670 | 32851 ft | 474 kts | 64° |
| 2026-04-19 08:52 | -3.71229 | 138.47556 | 32871 ft | 471 kts | 65° |
| 2026-04-19 08:52 | -3.68301 | 138.53392 | 32868 ft | 468 kts | 65° |
| 2026-04-19 08:53 | -3.65391 | 138.59202 | 32865 ft | 466 kts | 65° |
| 2026-04-19 08:53 | -3.62489 | 138.64990 | 32858 ft | 465 kts | 65° |
| 2026-04-19 08:54 | -3.59590 | 138.70774 | 32861 ft | 464 kts | 65° |
| 2026-04-19 08:54 | -3.56709 | 138.76541 | 32861 ft | 462 kts | 65° |
| 2026-04-19 08:55 | -3.53832 | 138.82294 | 32854 ft | 462 kts | 65° |
| 2026-04-19 08:55 | -3.50948 | 138.88042 | 32845 ft | 462 kts | 65° |
| 2026-04-19 08:56 | -3.48066 | 138.93794 | 32854 ft | 461 kts | 65° |
| 2026-04-19 08:56 | -3.45195 | 138.99516 | 32866 ft | 459 kts | 65° |
| 2026-04-19 08:57 | -3.42357 | 139.05169 | 32871 ft | 456 kts | 65° |
| 2026-04-19 08:57 | -3.39429 | 139.10790 | 32869 ft | 455 kts | 63° |
| 2026-04-19 08:58 | -3.36250 | 139.16268 | 32864 ft | 454 kts | 62° |
| 2026-04-19 08:58 | -3.33023 | 139.21682 | 32861 ft | 453 kts | 62° |
| 2026-04-19 08:59 | -3.29850 | 139.27112 | 32859 ft | 452 kts | 62° |
| 2026-04-19 08:59 | -3.26722 | 139.32570 | 32854 ft | 452 kts | 62° |
| 2026-04-19 09:00 | -3.23590 | 139.38019 | 32849 ft | 451 kts | 62° |
| 2026-04-19 09:00 | -3.20478 | 139.43425 | 32859 ft | 450 kts | 62° |
| 2026-04-19 09:01 | -3.17372 | 139.48852 | 32863 ft | 449 kts | 62° |
| 2026-04-19 09:01 | -3.14271 | 139.54269 | 32861 ft | 448 kts | 62° |
| 2026-04-19 09:02 | -3.11134 | 139.59662 | 32796 ft | 450 kts | 62° |
| 2026-04-19 09:02 | -3.09552 | 139.62365 | 32546 ft | 451 kts | 62° |
| 2026-04-19 09:02 | -3.07968 | 139.65075 | 32296 ft | 451 kts | 62° |
| 2026-04-19 09:03 | -3.06393 | 139.67783 | 32045 ft | 447 kts | 62° |
| 2026-04-19 09:03 | -3.04848 | 139.70446 | 31792 ft | 437 kts | 62° |
| 2026-04-19 09:03 | -3.03339 | 139.73047 | 31540 ft | 427 kts | 62° |
| 2026-04-19 09:03 | -3.01866 | 139.75586 | 31286 ft | 417 kts | 62° |
| 2026-04-19 09:04 | -3.00421 | 139.78074 | 31040 ft | 409 kts | 62° |
| 2026-04-19 09:04 | -2.99012 | 139.80505 | 30786 ft | 401 kts | 62° |
| 2026-04-19 09:04 | -2.97636 | 139.82884 | 30085 ft | 404 kts | 62° |
| 2026-04-19 09:04 | -2.96212 | 139.85356 | 29005 ft | 416 kts | 62° |
| 2026-04-19 09:05 | -2.94750 | 139.87896 | 27884 ft | 427 kts | 61° |
| 2026-04-19 09:05 | -2.93249 | 139.90499 | 26730 ft | 436 kts | 60° |
| 2026-04-19 09:05 | -2.91716 | 139.93150 | 25563 ft | 445 kts | 60° |
| 2026-04-19 09:05 | -2.90151 | 139.95851 | 24369 ft | 453 kts | 59° |
| 2026-04-19 09:06 | -2.88558 | 139.98599 | 23146 ft | 459 kts | 59° |
| 2026-04-19 09:06 | -2.86946 | 140.01379 | 21921 ft | 464 kts | 59° |
| 2026-04-19 09:06 | -2.85324 | 140.04181 | 20680 ft | 468 kts | 60° |
| 2026-04-19 09:06 | -2.83691 | 140.07009 | 19450 ft | 470 kts | 60° |
| 2026-04-19 09:07 | -2.82085 | 140.09783 | 18295 ft | 452 kts | 60° |
| 2026-04-19 09:07 | -2.80538 | 140.12456 | 17230 ft | 435 kts | 60° |
| 2026-04-19 09:07 | -2.79066 | 140.14997 | 16689 ft | 410 kts | 60° |
| 2026-04-19 09:07 | -2.77673 | 140.17400 | 16150 ft | 388 kts | 60° |
| 2026-04-19 09:08 | -2.76354 | 140.19678 | 15645 ft | 369 kts | 61° |
| 2026-04-19 09:08 | -2.75097 | 140.21848 | 15156 ft | 352 kts | 60° |
| 2026-04-19 09:08 | -2.74295 | 140.23232 | 14839 ft | 342 kts | 61° |
| 2026-04-19 09:08 | -2.73128 | 140.25247 | 14392 ft | 328 kts | 61° |
| 2026-04-19 09:09 | -2.72005 | 140.27187 | 13957 ft | 317 kts | 61° |
| 2026-04-19 09:09 | -2.70921 | 140.29057 | 13539 ft | 306 kts | 61° |
| 2026-04-19 09:09 | -2.69874 | 140.30862 | 13131 ft | 296 kts | 61° |
| 2026-04-19 09:09 | -2.68859 | 140.32615 | 12734 ft | 286 kts | 61° |
| 2026-04-19 09:10 | -2.67877 | 140.34311 | 12356 ft | 278 kts | 61° |
| 2026-04-19 09:10 | -2.66927 | 140.35957 | 11982 ft | 269 kts | 61° |
| 2026-04-19 09:10 | -2.66002 | 140.37557 | 11632 ft | 261 kts | 61° |
| 2026-04-19 09:10 | -2.65102 | 140.39109 | 11280 ft | 254 kts | 61° |
| 2026-04-19 09:11 | -2.64231 | 140.40614 | 10934 ft | 247 kts | 61° |
| 2026-04-19 09:11 | -2.63385 | 140.42075 | 10612 ft | 239 kts | 61° |
| 2026-04-19 09:11 | -2.62562 | 140.43494 | 10289 ft | 233 kts | 61° |
| 2026-04-19 09:11 | -2.61757 | 140.44883 | 9983 ft | 229 kts | 61° |
| 2026-04-19 09:12 | -2.60962 | 140.46254 | 9673 ft | 227 kts | 61° |
| 2026-04-19 09:12 | -2.60176 | 140.47612 | 9367 ft | 226 kts | 61° |
| 2026-04-19 09:12 | -2.59399 | 140.48971 | 9064 ft | 224 kts | 65° |
| 2026-04-19 09:12 | -2.58918 | 140.50416 | 8767 ft | 222 kts | 82° |
| 2026-04-19 09:13 | -2.58885 | 140.51947 | 8465 ft | 221 kts | 97° |
| 2026-04-19 09:13 | -2.59299 | 140.53424 | 8163 ft | 222 kts | 113° |
| 2026-04-19 09:13 | -2.60115 | 140.54731 | 7860 ft | 223 kts | 124° |
| 2026-04-19 09:13 | -2.61038 | 140.55968 | 7556 ft | 222 kts | 124° |
| 2026-04-19 09:14 | -2.61955 | 140.57206 | 7248 ft | 221 kts | 124° |
| 2026-04-19 09:14 | -2.62865 | 140.58438 | 6951 ft | 220 kts | 124° |
| 2026-04-19 09:14 | -2.63771 | 140.59666 | 6648 ft | 219 kts | 124° |
| 2026-04-19 09:14 | -2.64675 | 140.60889 | 6345 ft | 218 kts | 124° |
| 2026-04-19 09:15 | -2.65572 | 140.62103 | 6050 ft | 217 kts | 124° |
| 2026-04-19 09:15 | -2.66468 | 140.63314 | 5752 ft | 216 kts | 124° |
| 2026-04-19 09:15 | -2.68243 | 140.65715 | 5159 ft | 213 kts | 124° |
| 2026-04-19 09:16 | -2.69123 | 140.66905 | 4866 ft | 212 kts | 124° |
| 2026-04-19 09:16 | -2.70000 | 140.68090 | 4578 ft | 210 kts | 124° |
| 2026-04-19 09:16 | -2.70868 | 140.69263 | 4293 ft | 209 kts | 124° |
| 2026-04-19 09:16 | -2.71731 | 140.70430 | 4062 ft | 208 kts | 124° |
| 2026-04-19 09:17 | -2.72591 | 140.71587 | 3994 ft | 207 kts | 125° |
| 2026-04-19 09:17 | -2.73456 | 140.72745 | 4005 ft | 208 kts | 125° |
| 2026-04-19 09:17 | -2.74311 | 140.73890 | 4005 ft | 208 kts | 125° |
| 2026-04-19 09:17 | -2.75177 | 140.75050 | 4004 ft | 208 kts | 125° |
| 2026-04-19 09:18 | -2.76044 | 140.76209 | 4006 ft | 208 kts | 125° |
| 2026-04-19 09:18 | -2.77133 | 140.77162 | 4007 ft | 213 kts | 153° |
| 2026-04-19 09:18 | -2.78602 | 140.77373 | 4009 ft | 221 kts | 187° |
| 2026-04-19 09:18 | -2.79970 | 140.76651 | 4007 ft | 231 kts | 225° |
| 2026-04-19 09:19 | -2.80644 | 140.75192 | 3999 ft | 238 kts | 265° |
| 2026-04-19 09:19 | -2.80274 | 140.73611 | 4001 ft | 237 kts | 307° |
| 2026-04-19 09:19 | -2.79031 | 140.72611 | 4018 ft | 230 kts | 341° |
| 2026-04-19 09:19 | -2.77545 | 140.71994 | 4004 ft | 232 kts | 341° |
| 2026-04-19 09:20 | -2.76058 | 140.71358 | 4008 ft | 233 kts | 340° |
| 2026-04-19 09:20 | -2.74570 | 140.70719 | 4014 ft | 233 kts | 340° |
| 2026-04-19 09:20 | -2.73083 | 140.70081 | 3998 ft | 232 kts | 340° |
| 2026-04-19 09:20 | -2.71618 | 140.69442 | 3998 ft | 225 kts | 336° |
| 2026-04-19 09:21 | -2.70385 | 140.68517 | 3954 ft | 222 kts | 316° |
| 2026-04-19 09:21 | -2.69393 | 140.67332 | 3717 ft | 222 kts | 309° |
| 2026-04-19 09:21 | -2.68471 | 140.66096 | 3438 ft | 222 kts | 308° |
| 2026-04-19 09:21 | -2.67551 | 140.64855 | 3170 ft | 219 kts | 308° |
| 2026-04-19 09:22 | -2.66654 | 140.63649 | 2855 ft | 213 kts | 308° |
| 2026-04-19 09:22 | -2.65795 | 140.62487 | 2578 ft | 200 kts | 308° |
| 2026-04-19 09:22 | -2.65031 | 140.61423 | 2432 ft | 183 kts | 307° |
| 2026-04-19 09:22 | -2.64338 | 140.60441 | 2466 ft | 164 kts | 306° |
| 2026-04-19 09:23 | -2.63686 | 140.59529 | 2520 ft | 160 kts | 306° |
| 2026-04-19 09:23 | -2.63096 | 140.58578 | 2515 ft | 164 kts | 298° |
| 2026-04-19 09:23 | -2.62648 | 140.57537 | 2526 ft | 164 kts | 292° |
| 2026-04-19 09:23 | -2.62244 | 140.56472 | 2515 ft | 164 kts | 291° |
| 2026-04-19 09:24 | -2.61818 | 140.55414 | 2413 ft | 164 kts | 294° |
| 2026-04-19 09:24 | -2.61384 | 140.54378 | 2333 ft | 159 kts | 292° |
| 2026-04-19 09:24 | -2.60958 | 140.53368 | 2366 ft | 155 kts | 292° |
| 2026-04-19 09:24 | -2.60530 | 140.52376 | 2392 ft | 156 kts | 294° |
| 2026-04-19 09:25 | -2.59981 | 140.51445 | 2319 ft | 156 kts | 307° |
| 2026-04-19 09:25 | -2.59300 | 140.50603 | 2219 ft | 156 kts | 307° |
| 2026-04-19 09:25 | -2.58726 | 140.49688 | 2074 ft | 155 kts | 297° |
| 2026-04-19 09:25 | -2.58179 | 140.48760 | 1922 ft | 156 kts | 309° |
| 2026-04-19 09:26 | -2.57417 | 140.48012 | 1733 ft | 153 kts | 334° |
| 2026-04-19 09:26 | -2.56479 | 140.48117 | 1612 ft | 139 kts | 53° |
| 2026-04-19 09:26 | -2.56290 | 140.49009 | 1435 ft | 136 kts | 98° |
| 2026-04-19 09:26 | -2.56517 | 140.49955 | 998 ft | 144 kts | 115° |
| 2026-04-19 09:27 | -2.57058 | 140.50803 | 600 ft | 141 kts | 125° |
| 2026-04-19 09:27 | -2.57682 | 140.51640 | 772 ft | 167 kts | 127° |
| 2026-04-19 09:27 | -2.58444 | 140.52643 | 1326 ft | 195 kts | 127° |
| 2026-04-19 09:27 | -2.59304 | 140.53727 | 1642 ft | 195 kts | 128° |
| 2026-04-19 09:28 | -2.60127 | 140.54765 | 1883 ft | 193 kts | 128° |
| 2026-04-19 09:28 | -2.60962 | 140.55823 | 2124 ft | 194 kts | 128° |
| 2026-04-19 09:28 | -2.61796 | 140.56879 | 2366 ft | 194 kts | 128° |
| 2026-04-19 09:28 | -2.62635 | 140.57941 | 2647 ft | 197 kts | 128° |
| 2026-04-19 09:29 | -2.63694 | 140.58785 | 3123 ft | 194 kts | 155° |
| 2026-04-19 09:29 | -2.64975 | 140.58989 | 4075 ft | 194 kts | 185° |
| 2026-04-19 09:29 | -2.66363 | 140.58471 | 4137 ft | 234 kts | 204° |
| 2026-04-19 09:29 | -2.67911 | 140.57941 | 4044 ft | 235 kts | 179° |
| 2026-04-19 09:30 | -2.69541 | 140.57993 | 4020 ft | 236 kts | 173° |
| 2026-04-19 09:30 | -2.71171 | 140.58109 | 4002 ft | 233 kts | 166° |
| 2026-04-19 09:30 | -2.72694 | 140.58609 | 4007 ft | 230 kts | 154° |
| 2026-04-19 09:30 | -2.74223 | 140.59114 | 4012 ft | 233 kts | 161° |
| 2026-04-19 09:31 | -2.75792 | 140.59509 | 3999 ft | 231 kts | 162° |
| 2026-04-19 09:31 | -2.77319 | 140.59988 | 4007 ft | 228 kts | 146° |
| 2026-04-19 09:31 | -2.78554 | 140.60963 | 3994 ft | 225 kts | 134° |
| 2026-04-19 09:31 | -2.79661 | 140.62039 | 3998 ft | 225 kts | 130° |
| 2026-04-19 09:32 | -2.80403 | 140.63382 | 4002 ft | 221 kts | 100° |
| 2026-04-19 09:32 | -2.80403 | 140.64921 | 4009 ft | 223 kts | 84° |
| 2026-04-19 09:32 | -2.80203 | 140.66463 | 4010 ft | 224 kts | 83° |
| 2026-04-19 09:32 | -2.79863 | 140.67977 | 3994 ft | 225 kts | 66° |
| 2026-04-19 09:33 | -2.78834 | 140.69159 | 4000 ft | 231 kts | 34° |
| 2026-04-19 09:33 | -2.77286 | 140.69608 | 3993 ft | 235 kts | 2° |
| 2026-04-19 09:33 | -2.75757 | 140.69160 | 3997 ft | 230 kts | 329° |
| 2026-04-19 09:33 | -2.74573 | 140.68087 | 4007 ft | 227 kts | 315° |
| 2026-04-19 09:34 | -2.73555 | 140.66943 | 3998 ft | 213 kts | 313° |
| 2026-04-19 09:34 | -2.72602 | 140.65837 | 3925 ft | 208 kts | 313° |
| 2026-04-19 09:34 | -2.71681 | 140.64763 | 3796 ft | 204 kts | 313° |
| 2026-04-19 09:34 | -2.70769 | 140.63698 | 3666 ft | 199 kts | 313° |
| 2026-04-19 09:35 | -2.69878 | 140.62654 | 3536 ft | 198 kts | 313° |
| 2026-04-19 09:35 | -2.68978 | 140.61602 | 3420 ft | 200 kts | 313° |
| 2026-04-19 09:35 | -2.68074 | 140.60547 | 3296 ft | 200 kts | 313° |
| 2026-04-19 09:35 | -2.67194 | 140.59470 | 3177 ft | 201 kts | 303° |
| 2026-04-19 09:36 | -2.66557 | 140.58231 | 3080 ft | 200 kts | 294° |
| 2026-04-19 09:36 | -2.65963 | 140.56973 | 2959 ft | 200 kts | 297° |
| 2026-04-19 09:36 | -2.65343 | 140.55733 | 2856 ft | 197 kts | 298° |
| 2026-04-19 09:36 | -2.64730 | 140.54512 | 2748 ft | 195 kts | 297° |
| 2026-04-19 09:37 | -2.64119 | 140.53303 | 2626 ft | 195 kts | 298° |
| 2026-04-19 09:37 | -2.63503 | 140.52138 | 2216 ft | 186 kts | 301° |
| 2026-04-19 09:37 | -2.62842 | 140.51036 | 2005 ft | 184 kts | 302° |
| 2026-04-19 09:37 | -2.62163 | 140.49954 | 2006 ft | 183 kts | 302° |
| 2026-04-19 09:38 | -2.61483 | 140.48878 | 2003 ft | 183 kts | 302° |
| 2026-04-19 09:38 | -2.60813 | 140.47816 | 2002 ft | 183 kts | 303° |
| 2026-04-19 09:38 | -2.60128 | 140.46736 | 2002 ft | 183 kts | 303° |
| 2026-04-19 09:38 | -2.59300 | 140.45782 | 2030 ft | 183 kts | 329° |
| 2026-04-19 09:39 | -2.58117 | 140.45723 | 1843 ft | 173 kts | 31° |
| 2026-04-19 09:39 | -2.57354 | 140.46598 | 1721 ft | 168 kts | 61° |
| 2026-04-19 09:39 | -2.56763 | 140.47607 | 1590 ft | 168 kts | 63° |
| 2026-04-19 09:39 | -2.56366 | 140.48693 | 1266 ft | 165 kts | 83° |
| 2026-04-19 09:40 | -2.56453 | 140.49816 | 845 ft | 163 kts | 108° |
| 2026-04-19 09:40 | -2.57045 | 140.50778 | 427 ft | 163 kts | 127° |
| 2026-04-19 09:40 | -2.57709 | 140.51652 | 301 ft | 143 kts | 126° |
| 2026-04-19 09:40 | -2.58181 | 140.52295 | 297 ft | 89 kts | 127° |
| 2026-04-19 09:41 | -2.58449 | 140.52653 | 297 ft | 40 kts | 126° |
| 2026-04-19 09:41 | -2.58518 | 140.52745 | 298 ft | 3 kts | 127° |
| 2026-04-19 09:41 | -2.58543 | 140.52764 | 300 ft | 6 kts | 136° |
| 2026-04-19 09:41 | -2.58533 | 140.52772 | 298 ft | 3 kts | 349° |
| 2026-04-19 09:42 | -2.58512 | 140.52742 | 299 ft | 7 kts | 303° |
| 2026-04-19 09:42 | -2.58479 | 140.52693 | 299 ft | 10 kts | 304° |
| 2026-04-19 09:42 | -2.58431 | 140.52628 | 299 ft | 13 kts | 307° |
| 2026-04-19 09:42 | -2.58369 | 140.52544 | 298 ft | 16 kts | 306° |
| 2026-04-19 09:43 | -2.58296 | 140.52446 | 300 ft | 19 kts | 306° |
| 2026-04-19 09:43 | -2.58213 | 140.52335 | 298 ft | 21 kts | 306° |
| 2026-04-19 09:43 | -2.58121 | 140.52209 | 301 ft | 24 kts | 307° |
| 2026-04-19 09:43 | -2.58017 | 140.52072 | 299 ft | 26 kts | 307° |
| 2026-04-19 09:44 | -2.57925 | 140.51948 | 300 ft | 14 kts | 306° |
| 2026-04-19 09:44 | -2.57875 | 140.51901 | 303 ft | 9 kts | 343° |
| 2026-04-19 09:44 | -2.57805 | 140.51921 | 302 ft | 12 kts | 32° |
| 2026-04-19 09:44 | -2.57738 | 140.51949 | 301 ft | 11 kts | 345° |
| 2026-04-19 09:45 | -2.57679 | 140.51885 | 299 ft | 14 kts | 307° |
| 2026-04-19 09:45 | -2.57616 | 140.51800 | 298 ft | 17 kts | 306° |
| 2026-04-19 09:45 | -2.57551 | 140.51713 | 299 ft | 10 kts | 307° |
| 2026-04-19 09:45 | -2.57508 | 140.51656 | 300 ft | 12 kts | 307° |
| 2026-04-19 09:46 | -2.57451 | 140.51580 | 302 ft | 15 kts | 307° |
| 2026-04-19 09:46 | -2.57383 | 140.51489 | 300 ft | 18 kts | 307° |
| 2026-04-19 09:46 | -2.57313 | 140.51395 | 301 ft | 16 kts | 306° |
| 2026-04-19 09:46 | -2.57248 | 140.51310 | 298 ft | 9 kts | 307° |
| 2026-04-19 09:47 | -2.57215 | 140.51266 | 300 ft | 9 kts | 307° |
| 2026-04-19 09:47 | -2.57179 | 140.51218 | 299 ft | 5 kts | 312° |
| 2026-04-19 09:47 | -2.57150 | 140.51210 | 301 ft | 3 kts | 7° |
| 2026-04-19 09:47 | -2.57131 | 140.51219 | 301 ft | 3 kts | 32° |
| 2026-04-19 09:48 | -2.57117 | 140.51230 | 302 ft | 2 kts | 37° |
| 2026-04-19 09:48 | -2.57109 | 140.51236 | 299 ft | 1 kts | 37° |
| 2026-04-19 09:48 | -2.57104 | 140.51239 | 300 ft | 1 kts | 37° |
| 2026-04-19 09:48 | -2.57101 | 140.51242 | 303 ft | 1 kts | 37° |
| 2026-04-19 09:49 | -2.57098 | 140.51245 | 303 ft | 0 kts | 37° |